Art, Indiana
Current Conditions -  °F | °C
As of 2:53 PM on Friday 31 Oct 2014 (Local Time) from KHUF Reporting Station
Overcast Overcast  
Wind Chill: 34°   Ceiling: 3400
Heat Index: 42°   Visibility: 10mi
Dew Point: 30°   Wind: 18mph
Humidity: 62%   Direction: 340°NNW
Pressure: 30.08"   Gusts: 28mph
Location:  39.5158°N, 87.1262°W
Report Text: KHUF 311853Z 34016G24KT 10SM BKN034 OVC042 06/M01 A3008 RMK AO2 RAB00E13B51E52 SLP190 P0000 T00561011
Loading
Personal Weather Stations






























Interactive Weather Map
Tropical Storm Tracking
New forecast layout! Learn more

10-Day Weather Forecast

Advertisements
Track Severe Weather on mobile